sensor_id;sensor_type;location;lat;lon;timestamp;P1;durP1;ratioP1;P2;durP2;ratioP2
78622;SDS011;67943;54.412;9.502;2023-02-28T00:02:35;14.63;;;5.47;;
78622;SDS011;67943;54.412;9.502;2023-02-28T00:07:37;7.63;;;3.92;;
78622;SDS011;67943;54.412;9.502;2023-02-28T00:12:39;9.93;;;4.70;;
78622;SDS011;67943;54.412;9.502;2023-02-28T00:17:42;10.38;;;5.38;;
78622;SDS011;67943;54.412;9.502;2023-02-28T00:22:45;7.68;;;4.25;;
78622;SDS011;67943;54.412;9.502;2023-02-28T00:27:48;8.32;;;3.55;;
78622;SDS011;67943;54.412;9.502;2023-02-28T00:32:51;14.13;;;6.30;;
78622;SDS011;67943;54.412;9.502;2023-02-28T00:37:53;10.23;;;5.00;;
78622;SDS011;67943;54.412;9.502;2023-02-28T00:42:54;6.63;;;3.17;;
78622;SDS011;67943;54.412;9.502;2023-02-28T00:52:58;10.50;;;4.80;;
78622;SDS011;67943;54.412;9.502;2023-02-28T01:03:02;10.23;;;4.85;;
78622;SDS011;67943;54.412;9.502;2023-02-28T01:08:04;7.28;;;3.90;;
78622;SDS011;67943;54.412;9.502;2023-02-28T01:13:06;6.30;;;3.45;;
78622;SDS011;67943;54.412;9.502;2023-02-28T01:18:09;10.75;;;4.47;;
78622;SDS011;67943;54.412;9.502;2023-02-28T01:23:10;8.10;;;4.32;;
78622;SDS011;67943;54.412;9.502;2023-02-28T01:33:15;10.02;;;4.25;;
78622;SDS011;67943;54.412;9.502;2023-02-28T01:38:16;6.60;;;3.35;;
78622;SDS011;67943;54.412;9.502;2023-02-28T01:43:20;16.50;;;4.88;;
78622;SDS011;67943;54.412;9.502;2023-02-28T01:48:26;7.72;;;3.70;;
78622;SDS011;67943;54.412;9.502;2023-02-28T01:53:31;8.93;;;5.10;;
78622;SDS011;67943;54.412;9.502;2023-02-28T01:58:35;8.95;;;4.30;;
78622;SDS011;67943;54.412;9.502;2023-02-28T02:03:39;8.52;;;4.22;;
78622;SDS011;67943;54.412;9.502;2023-02-28T02:08:40;12.57;;;4.63;;
78622;SDS011;67943;54.412;9.502;2023-02-28T02:13:46;8.35;;;4.93;;
78622;SDS011;67943;54.412;9.502;2023-02-28T02:19:02;10.45;;;4.60;;
78622;SDS011;67943;54.412;9.502;2023-02-28T02:24:24;9.02;;;3.83;;
78622;SDS011;67943;54.412;9.502;2023-02-28T02:30:00;10.38;;;4.88;;
78622;SDS011;67943;54.412;9.502;2023-02-28T02:35:18;9.18;;;4.50;;
78622;SDS011;67943;54.412;9.502;2023-02-28T02:40:27;11.70;;;5.20;;
78622;SDS011;67943;54.412;9.502;2023-02-28T02:45:35;9.70;;;4.97;;
78622;SDS011;67943;54.412;9.502;2023-02-28T02:50:43;7.72;;;4.07;;
78622;SDS011;67943;54.412;9.502;2023-02-28T02:55:47;6.82;;;3.92;;
78622;SDS011;67943;54.412;9.502;2023-02-28T03:00:55;8.65;;;4.32;;
78622;SDS011;67943;54.412;9.502;2023-02-28T03:06:00;10.07;;;5.10;;
78622;SDS011;67943;54.412;9.502;2023-02-28T03:11:05;12.63;;;4.90;;
78622;SDS011;67943;54.412;9.502;2023-02-28T03:16:22;6.88;;;3.42;;
78622;SDS011;67943;54.412;9.502;2023-02-28T03:21:35;8.82;;;4.40;;
78622;SDS011;67943;54.412;9.502;2023-02-28T03:26:42;7.30;;;4.47;;
78622;SDS011;67943;54.412;9.502;2023-02-28T03:31:48;7.05;;;4.40;;
78622;SDS011;67943;54.412;9.502;2023-02-28T03:36:57;8.30;;;4.47;;
78622;SDS011;67943;54.412;9.502;2023-02-28T03:42:04;6.50;;;4.60;;
78622;SDS011;67943;54.412;9.502;2023-02-28T03:47:10;9.65;;;4.18;;
78622;SDS011;67943;54.412;9.502;2023-02-28T03:52:17;10.27;;;5.18;;
78622;SDS011;67943;54.412;9.502;2023-02-28T03:57:23;8.20;;;4.97;;
78622;SDS011;67943;54.412;9.502;2023-02-28T04:02:33;11.45;;;5.95;;
78622;SDS011;67943;54.412;9.502;2023-02-28T04:07:36;8.43;;;4.55;;
78622;SDS011;67943;54.412;9.502;2023-02-28T04:12:38;10.65;;;5.55;;
78622;SDS011;67943;54.412;9.502;2023-02-28T04:22:42;8.88;;;4.20;;
78622;SDS011;67943;54.412;9.502;2023-02-28T04:27:44;8.25;;;4.70;;
78622;SDS011;67943;54.412;9.502;2023-02-28T04:32:45;8.05;;;4.38;;
78622;SDS011;67943;54.412;9.502;2023-02-28T04:42:49;6.53;;;4.25;;
78622;SDS011;67943;54.412;9.502;2023-02-28T04:52:55;9.30;;;5.55;;
78622;SDS011;67943;54.412;9.502;2023-02-28T04:57:57;7.72;;;3.95;;
78622;SDS011;67943;54.412;9.502;2023-02-28T05:02:59;8.05;;;4.63;;
78622;SDS011;67943;54.412;9.502;2023-02-28T05:08:01;7.75;;;4.35;;
78622;SDS011;67943;54.412;9.502;2023-02-28T05:13:05;8.50;;;4.30;;
78622;SDS011;67943;54.412;9.502;2023-02-28T05:18:07;8.95;;;4.97;;
78622;SDS011;67943;54.412;9.502;2023-02-28T05:23:11;12.15;;;5.55;;
78622;SDS011;67943;54.412;9.502;2023-02-28T05:28:14;7.22;;;4.45;;
78622;SDS011;67943;54.412;9.502;2023-02-28T05:33:15;11.27;;;6.00;;
78622;SDS011;67943;54.412;9.502;2023-02-28T05:38:18;6.30;;;4.15;;
78622;SDS011;67943;54.412;9.502;2023-02-28T05:43:20;10.73;;;5.75;;
78622;SDS011;67943;54.412;9.502;2023-02-28T05:48:21;12.45;;;6.25;;
78622;SDS011;67943;54.412;9.502;2023-02-28T05:53:24;9.68;;;4.05;;
78622;SDS011;67943;54.412;9.502;2023-02-28T05:58:26;11.90;;;6.10;;
78622;SDS011;67943;54.412;9.502;2023-02-28T06:03:30;10.95;;;7.20;;
78622;SDS011;67943;54.412;9.502;2023-02-28T06:08:33;11.23;;;6.95;;
78622;SDS011;67943;54.412;9.502;2023-02-28T06:13:35;11.48;;;6.18;;
78622;SDS011;67943;54.412;9.502;2023-02-28T06:18:36;12.45;;;7.05;;
78622;SDS011;67943;54.412;9.502;2023-02-28T06:23:39;17.67;;;8.88;;
78622;SDS011;67943;54.412;9.502;2023-02-28T06:28:41;16.23;;;8.27;;
78622;SDS011;67943;54.412;9.502;2023-02-28T06:33:42;20.45;;;7.57;;
78622;SDS011;67943;54.412;9.502;2023-02-28T06:38:46;10.13;;;5.82;;
78622;SDS011;67943;54.412;9.502;2023-02-28T06:43:51;8.20;;;4.95;;
78622;SDS011;67943;54.412;9.502;2023-02-28T06:48:53;11.80;;;6.70;;
78622;SDS011;67943;54.412;9.502;2023-02-28T06:53:56;15.93;;;9.18;;
78622;SDS011;67943;54.412;9.502;2023-02-28T06:58:58;14.13;;;7.97;;
78622;SDS011;67943;54.412;9.502;2023-02-28T07:03:59;14.30;;;8.10;;
78622;SDS011;67943;54.412;9.502;2023-02-28T07:09:02;16.15;;;7.45;;
78622;SDS011;67943;54.412;9.502;2023-02-28T07:14:05;14.80;;;7.40;;
78622;SDS011;67943;54.412;9.502;2023-02-28T07:19:06;14.63;;;8.95;;
78622;SDS011;67943;54.412;9.502;2023-02-28T07:24:09;11.57;;;7.05;;
78622;SDS011;67943;54.412;9.502;2023-02-28T07:29:10;13.98;;;8.68;;
78622;SDS011;67943;54.412;9.502;2023-02-28T07:34:12;13.75;;;8.10;;
78622;SDS011;67943;54.412;9.502;2023-02-28T07:39:15;14.27;;;8.60;;
78622;SDS011;67943;54.412;9.502;2023-02-28T07:44:16;11.55;;;7.43;;
78622;SDS011;67943;54.412;9.502;2023-02-28T07:49:18;13.75;;;7.03;;
78622;SDS011;67943;54.412;9.502;2023-02-28T07:54:21;17.83;;;8.48;;
78622;SDS011;67943;54.412;9.502;2023-02-28T07:59:22;16.50;;;9.30;;
78622;SDS011;67943;54.412;9.502;2023-02-28T08:04:24;21.58;;;10.88;;
78622;SDS011;67943;54.412;9.502;2023-02-28T08:09:27;20.20;;;11.70;;
78622;SDS011;67943;54.412;9.502;2023-02-28T08:14:30;21.15;;;11.43;;
78622;SDS011;67943;54.412;9.502;2023-02-28T08:19:31;18.50;;;9.10;;
78622;SDS011;67943;54.412;9.502;2023-02-28T08:24:34;45.80;;;22.50;;
78622;SDS011;67943;54.412;9.502;2023-02-28T08:29:36;20.25;;;9.75;;
78622;SDS011;67943;54.412;9.502;2023-02-28T08:34:38;17.52;;;8.52;;
78622;SDS011;67943;54.412;9.502;2023-02-28T08:39:42;14.02;;;8.00;;
78622;SDS011;67943;54.412;9.502;2023-02-28T08:44:44;14.80;;;8.57;;
78622;SDS011;67943;54.412;9.502;2023-02-28T08:49:45;12.77;;;6.53;;
78622;SDS011;67943;54.412;9.502;2023-02-28T08:54:48;11.13;;;6.13;;
78622;SDS011;67943;54.412;9.502;2023-02-28T08:59:50;17.23;;;6.78;;
78622;SDS011;67943;54.412;9.502;2023-02-28T09:04:51;11.63;;;6.22;;
78622;SDS011;67943;54.412;9.502;2023-02-28T09:09:54;10.23;;;5.47;;
78622;SDS011;67943;54.412;9.502;2023-02-28T09:14:57;8.77;;;4.43;;
78622;SDS011;67943;54.412;9.502;2023-02-28T09:19:59;7.78;;;4.35;;
78622;SDS011;67943;54.412;9.502;2023-02-28T09:25:02;5.32;;;3.40;;
78622;SDS011;67943;54.412;9.502;2023-02-28T09:30:04;6.85;;;3.95;;
78622;SDS011;67943;54.412;9.502;2023-02-28T09:35:06;5.80;;;3.72;;
78622;SDS011;67943;54.412;9.502;2023-02-28T09:40:14;8.02;;;4.43;;
78622;SDS011;67943;54.412;9.502;2023-02-28T09:45:21;8.05;;;3.10;;
78622;SDS011;67943;54.412;9.502;2023-02-28T09:50:29;5.15;;;2.75;;
78622;SDS011;67943;54.412;9.502;2023-02-28T09:55:37;6.00;;;2.55;;
78622;SDS011;67943;54.412;9.502;2023-02-28T10:00:43;6.60;;;3.20;;
78622;SDS011;67943;54.412;9.502;2023-02-28T10:05:48;4.80;;;2.60;;
78622;SDS011;67943;54.412;9.502;2023-02-28T10:10:55;4.50;;;2.25;;
78622;SDS011;67943;54.412;9.502;2023-02-28T10:15:59;5.82;;;3.00;;
78622;SDS011;67943;54.412;9.502;2023-02-28T10:21:04;8.75;;;3.70;;
78622;SDS011;67943;54.412;9.502;2023-02-28T10:26:10;6.22;;;3.22;;
78622;SDS011;67943;54.412;9.502;2023-02-28T10:31:14;7.70;;;4.93;;
78622;SDS011;67943;54.412;9.502;2023-02-28T10:36:19;6.80;;;4.25;;
78622;SDS011;67943;54.412;9.502;2023-02-28T10:41:30;6.55;;;3.53;;
78622;SDS011;67943;54.412;9.502;2023-02-28T10:46:34;7.20;;;4.25;;
78622;SDS011;67943;54.412;9.502;2023-02-28T10:51:37;6.75;;;4.22;;
78622;SDS011;67943;54.412;9.502;2023-02-28T10:56:41;6.75;;;4.35;;
78622;SDS011;67943;54.412;9.502;2023-02-28T11:01:43;8.82;;;4.57;;
78622;SDS011;67943;54.412;9.502;2023-02-28T11:06:55;10.10;;;6.55;;
78622;SDS011;67943;54.412;9.502;2023-02-28T11:12:00;8.60;;;4.32;;
78622;SDS011;67943;54.412;9.502;2023-02-28T11:17:11;6.82;;;4.82;;
78622;SDS011;67943;54.412;9.502;2023-02-28T11:22:16;7.18;;;4.50;;
78622;SDS011;67943;54.412;9.502;2023-02-28T11:27:25;7.53;;;4.57;;
78622;SDS011;67943;54.412;9.502;2023-02-28T11:32:41;6.63;;;3.83;;
78622;SDS011;67943;54.412;9.502;2023-02-28T11:37:49;8.25;;;4.47;;
78622;SDS011;67943;54.412;9.502;2023-02-28T11:42:55;6.55;;;5.15;;
78622;SDS011;67943;54.412;9.502;2023-02-28T11:48:04;7.25;;;6.07;;
78622;SDS011;67943;54.412;9.502;2023-02-28T11:53:17;8.07;;;5.97;;
78622;SDS011;67943;54.412;9.502;2023-02-28T11:58:31;8.00;;;6.68;;
78622;SDS011;67943;54.412;9.502;2023-02-28T12:03:43;9.02;;;6.60;;
78622;SDS011;67943;54.412;9.502;2023-02-28T12:08:57;6.70;;;4.68;;
78622;SDS011;67943;54.412;9.502;2023-02-28T12:14:14;6.32;;;4.05;;
78622;SDS011;67943;54.412;9.502;2023-02-28T12:19:26;5.15;;;4.10;;
78622;SDS011;67943;54.412;9.502;2023-02-28T12:24:39;5.83;;;4.33;;
78622;SDS011;67943;54.412;9.502;2023-02-28T12:30:02;4.47;;;3.58;;
78622;SDS011;67943;54.412;9.502;2023-02-28T12:35:11;5.45;;;3.60;;
78622;SDS011;67943;54.412;9.502;2023-02-28T12:40:16;6.53;;;4.20;;
78622;SDS011;67943;54.412;9.502;2023-02-28T12:45:23;7.07;;;3.50;;
78622;SDS011;67943;54.412;9.502;2023-02-28T12:50:27;6.03;;;3.42;;
78622;SDS011;67943;54.412;9.502;2023-02-28T12:55:33;6.85;;;5.25;;
78622;SDS011;67943;54.412;9.502;2023-02-28T13:05:54;5.47;;;3.28;;
78622;SDS011;67943;54.412;9.502;2023-02-28T13:11:06;6.13;;;3.65;;
78622;SDS011;67943;54.412;9.502;2023-02-28T13:16:09;4.03;;;3.22;;
78622;SDS011;67943;54.412;9.502;2023-02-28T13:21:22;5.40;;;3.30;;
78622;SDS011;67943;54.412;9.502;2023-02-28T13:37:42;7.93;;;3.83;;
78622;SDS011;67943;54.412;9.502;2023-02-28T13:42:47;4.63;;;3.00;;
78622;SDS011;67943;54.412;9.502;2023-02-28T13:47:55;5.88;;;3.97;;
78622;SDS011;67943;54.412;9.502;2023-02-28T13:53:11;3.92;;;2.78;;
78622;SDS011;67943;54.412;9.502;2023-02-28T13:58:41;4.07;;;3.20;;
78622;SDS011;67943;54.412;9.502;2023-02-28T14:09:19;3.83;;;2.83;;
78622;SDS011;67943;54.412;9.502;2023-02-28T14:19:56;4.75;;;3.50;;
78622;SDS011;67943;54.412;9.502;2023-02-28T14:25:03;5.10;;;3.00;;
78622;SDS011;67943;54.412;9.502;2023-02-28T14:30:15;7.88;;;4.65;;
78622;SDS011;67943;54.412;9.502;2023-02-28T14:40:52;6.38;;;3.33;;
78622;SDS011;67943;54.412;9.502;2023-02-28T14:45:58;5.97;;;3.60;;
78622;SDS011;67943;54.412;9.502;2023-02-28T14:51:03;8.35;;;4.90;;
78622;SDS011;67943;54.412;9.502;2023-02-28T14:56:05;5.82;;;3.47;;
78622;SDS011;67943;54.412;9.502;2023-02-28T15:01:10;6.30;;;4.00;;
78622;SDS011;67943;54.412;9.502;2023-02-28T15:06:14;5.70;;;4.00;;
78622;SDS011;67943;54.412;9.502;2023-02-28T15:11:17;6.88;;;3.85;;
78622;SDS011;67943;54.412;9.502;2023-02-28T15:16:22;6.30;;;3.60;;
78622;SDS011;67943;54.412;9.502;2023-02-28T15:21:31;6.45;;;3.63;;
78622;SDS011;67943;54.412;9.502;2023-02-28T15:26:37;5.78;;;3.53;;
78622;SDS011;67943;54.412;9.502;2023-02-28T15:31:43;6.50;;;4.43;;
78622;SDS011;67943;54.412;9.502;2023-02-28T15:36:46;6.50;;;4.30;;
78622;SDS011;67943;54.412;9.502;2023-02-28T15:41:49;6.00;;;3.95;;
78622;SDS011;67943;54.412;9.502;2023-02-28T15:46:54;6.50;;;4.50;;
78622;SDS011;67943;54.412;9.502;2023-02-28T15:51:59;6.90;;;4.43;;
78622;SDS011;67943;54.412;9.502;2023-02-28T15:57:03;7.78;;;4.70;;
78622;SDS011;67943;54.412;9.502;2023-02-28T16:02:12;7.10;;;4.75;;
78622;SDS011;67943;54.412;9.502;2023-02-28T16:07:19;11.10;;;6.30;;
78622;SDS011;67943;54.412;9.502;2023-02-28T16:12:21;17.70;;;10.20;;
78622;SDS011;67943;54.412;9.502;2023-02-28T16:17:27;9.68;;;5.80;;
78622;SDS011;67943;54.412;9.502;2023-02-28T16:22:31;11.43;;;6.55;;
78622;SDS011;67943;54.412;9.502;2023-02-28T16:27:33;12.48;;;6.57;;
78622;SDS011;67943;54.412;9.502;2023-02-28T16:32:38;11.27;;;6.68;;
78622;SDS011;67943;54.412;9.502;2023-02-28T16:37:41;10.15;;;5.47;;
78622;SDS011;67943;54.412;9.502;2023-02-28T16:42:43;11.80;;;6.80;;
78622;SDS011;67943;54.412;9.502;2023-02-28T16:47:46;12.70;;;6.30;;
78622;SDS011;67943;54.412;9.502;2023-02-28T16:52:49;11.05;;;6.30;;
78622;SDS011;67943;54.412;9.502;2023-02-28T16:57:54;10.02;;;6.40;;
78622;SDS011;67943;54.412;9.502;2023-02-28T17:02:58;12.90;;;7.30;;
78622;SDS011;67943;54.412;9.502;2023-02-28T17:08:01;13.98;;;8.10;;
78622;SDS011;67943;54.412;9.502;2023-02-28T17:13:03;14.32;;;7.75;;
78622;SDS011;67943;54.412;9.502;2023-02-28T17:18:08;15.00;;;8.43;;
78622;SDS011;67943;54.412;9.502;2023-02-28T17:23:16;12.98;;;6.35;;
78622;SDS011;67943;54.412;9.502;2023-02-28T17:28:17;13.05;;;7.05;;
78622;SDS011;67943;54.412;9.502;2023-02-28T17:38:21;11.40;;;7.13;;
78622;SDS011;67943;54.412;9.502;2023-02-28T17:43:23;10.73;;;7.05;;
78622;SDS011;67943;54.412;9.502;2023-02-28T17:48:25;18.05;;;8.20;;
78622;SDS011;67943;54.412;9.502;2023-02-28T17:53:28;18.05;;;9.68;;
78622;SDS011;67943;54.412;9.502;2023-02-28T17:58:30;21.90;;;11.23;;
78622;SDS011;67943;54.412;9.502;2023-02-28T18:03:32;19.98;;;10.85;;
78622;SDS011;67943;54.412;9.502;2023-02-28T18:08:35;20.17;;;10.18;;
78622;SDS011;67943;54.412;9.502;2023-02-28T18:13:37;16.17;;;8.48;;
78622;SDS011;67943;54.412;9.502;2023-02-28T18:18:38;18.60;;;8.90;;
78622;SDS011;67943;54.412;9.502;2023-02-28T18:23:41;16.13;;;9.20;;
78622;SDS011;67943;54.412;9.502;2023-02-28T18:28:47;16.60;;;8.82;;
78622;SDS011;67943;54.412;9.502;2023-02-28T18:33:49;19.35;;;9.48;;
78622;SDS011;67943;54.412;9.502;2023-02-28T18:38:53;17.88;;;10.07;;
78622;SDS011;67943;54.412;9.502;2023-02-28T18:43:55;15.82;;;9.20;;
78622;SDS011;67943;54.412;9.502;2023-02-28T18:48:57;16.67;;;9.82;;
78622;SDS011;67943;54.412;9.502;2023-02-28T18:53:59;16.98;;;9.27;;
78622;SDS011;67943;54.412;9.502;2023-02-28T18:59:01;19.17;;;10.43;;
78622;SDS011;67943;54.412;9.502;2023-02-28T19:04:03;18.13;;;10.10;;
78622;SDS011;67943;54.412;9.502;2023-02-28T19:09:06;17.75;;;10.48;;
78622;SDS011;67943;54.412;9.502;2023-02-28T19:14:09;23.00;;;12.05;;
78622;SDS011;67943;54.412;9.502;2023-02-28T19:19:11;18.63;;;10.50;;
78622;SDS011;67943;54.412;9.502;2023-02-28T19:24:14;22.00;;;12.38;;
78622;SDS011;67943;54.412;9.502;2023-02-28T19:29:15;20.52;;;9.77;;
78622;SDS011;67943;54.412;9.502;2023-02-28T19:34:17;20.48;;;10.38;;
78622;SDS011;67943;54.412;9.502;2023-02-28T19:39:20;20.02;;;8.98;;
78622;SDS011;67943;54.412;9.502;2023-02-28T19:44:21;14.07;;;7.53;;
78622;SDS011;67943;54.412;9.502;2023-02-28T19:49:23;17.88;;;9.10;;
78622;SDS011;67943;54.412;9.502;2023-02-28T19:54:26;16.98;;;9.50;;
78622;SDS011;67943;54.412;9.502;2023-02-28T19:59:28;19.17;;;10.30;;
78622;SDS011;67943;54.412;9.502;2023-02-28T20:04:29;17.67;;;9.00;;
78622;SDS011;67943;54.412;9.502;2023-02-28T20:09:32;17.77;;;9.68;;
78622;SDS011;67943;54.412;9.502;2023-02-28T20:14:34;16.60;;;8.80;;
78622;SDS011;67943;54.412;9.502;2023-02-28T20:19:35;19.60;;;10.50;;
78622;SDS011;67943;54.412;9.502;2023-02-28T20:24:38;18.15;;;9.30;;
78622;SDS011;67943;54.412;9.502;2023-02-28T20:29:40;21.10;;;9.90;;
78622;SDS011;67943;54.412;9.502;2023-02-28T20:34:41;23.70;;;9.57;;
78622;SDS011;67943;54.412;9.502;2023-02-28T20:39:44;19.40;;;9.15;;
78622;SDS011;67943;54.412;9.502;2023-02-28T20:44:46;18.00;;;10.02;;
78622;SDS011;67943;54.412;9.502;2023-02-28T20:49:48;21.02;;;10.43;;
78622;SDS011;67943;54.412;9.502;2023-02-28T20:54:51;17.77;;;8.82;;
78622;SDS011;67943;54.412;9.502;2023-02-28T20:59:53;18.88;;;9.98;;
78622;SDS011;67943;54.412;9.502;2023-02-28T21:04:54;17.88;;;8.60;;
78622;SDS011;67943;54.412;9.502;2023-02-28T21:09:57;20.48;;;9.30;;
78622;SDS011;67943;54.412;9.502;2023-02-28T21:14:58;15.77;;;7.93;;
78622;SDS011;67943;54.412;9.502;2023-02-28T21:20:00;19.35;;;7.60;;
78622;SDS011;67943;54.412;9.502;2023-02-28T21:25:03;16.40;;;7.43;;
78622;SDS011;67943;54.412;9.502;2023-02-28T21:30:06;15.18;;;7.53;;
78622;SDS011;67943;54.412;9.502;2023-02-28T21:35:08;19.95;;;9.55;;
78622;SDS011;67943;54.412;9.502;2023-02-28T21:40:12;16.65;;;8.25;;
78622;SDS011;67943;54.412;9.502;2023-02-28T21:45:21;25.73;;;11.60;;
78622;SDS011;67943;54.412;9.502;2023-02-28T21:50:22;20.25;;;9.52;;
78622;SDS011;67943;54.412;9.502;2023-02-28T22:00:27;17.20;;;8.82;;
78622;SDS011;67943;54.412;9.502;2023-02-28T22:10:31;14.38;;;7.72;;
78622;SDS011;67943;54.412;9.502;2023-02-28T22:15:34;34.65;;;10.93;;
78622;SDS011;67943;54.412;9.502;2023-02-28T22:20:36;26.63;;;9.43;;
78622;SDS011;67943;54.412;9.502;2023-02-28T22:30:41;11.48;;;6.70;;
78622;SDS011;67943;54.412;9.502;2023-02-28T22:35:42;13.13;;;7.22;;
78622;SDS011;67943;54.412;9.502;2023-02-28T22:40:45;8.07;;;5.32;;
78622;SDS011;67943;54.412;9.502;2023-02-28T22:45:46;8.70;;;4.90;;
78622;SDS011;67943;54.412;9.502;2023-02-28T22:50:48;11.10;;;5.60;;
78622;SDS011;67943;54.412;9.502;2023-02-28T23:00:55;14.20;;;7.57;;
78622;SDS011;67943;54.412;9.502;2023-02-28T23:06:10;9.07;;;5.68;;
78622;SDS011;67943;54.412;9.502;2023-02-28T23:11:17;10.38;;;6.07;;
78622;SDS011;67943;54.412;9.502;2023-02-28T23:16:20;14.30;;;7.25;;
78622;SDS011;67943;54.412;9.502;2023-02-28T23:26:24;5.97;;;3.72;;
78622;SDS011;67943;54.412;9.502;2023-02-28T23:31:26;8.75;;;5.60;;
78622;SDS011;67943;54.412;9.502;2023-02-28T23:36:27;6.97;;;4.43;;
78622;SDS011;67943;54.412;9.502;2023-02-28T23:41:30;10.05;;;6.43;;
78622;SDS011;67943;54.412;9.502;2023-02-28T23:46:31;9.05;;;5.97;;
78622;SDS011;67943;54.412;9.502;2023-02-28T23:51:33;14.57;;;8.68;;
